Time;durP1;ratioP1;P1;durP2;ratioP2;P2;SDS_P1;SDS_P2;PMS_P1;PMS_P2;Temp;Humidity;BMP_temperature;BMP_pressure;BME280_temperature;BME280_humidity;BME280_pressure;Samples;Min_cycle;Max_cycle;Signal;HPM_P1;HPM_P2
2021/09/10 00:01:55;;;;;;;;;4.25;4.25;;;;;22.75;51.65;100689.22;5014480;28;45597;-58
2021/09/10 00:04:21;;;;;;;;;3.50;3.50;;;;;22.76;51.80;100696.31;5015926;28;47193;-59
2021/09/10 00:06:46;;;;;;;;;3.75;2.50;;;;;22.76;51.57;100696.31;5014968;28;45559;-59
2021/09/10 00:09:11;;;;;;;;;5.25;4.50;;;;;22.75;51.58;100690.06;5010463;28;45462;-58
2021/09/10 00:11:37;;;;;;;;;4.00;4.00;;;;;22.76;51.67;100688.28;5011652;28;45471;-58
2021/09/10 00:14:03;;;;;;;;;5.00;5.00;;;;;22.76;51.51;100693.63;5017209;28;45459;-58
2021/09/10 00:16:28;;;;;;;;;4.75;3.00;;;;;22.77;51.54;100690.00;5010462;28;45466;-58
2021/09/10 00:18:54;;;;;;;;;3.75;3.75;;;;;22.75;51.30;100687.38;5015595;28;45348;-58
2021/09/10 00:21:19;;;;;;;;;4.00;4.00;;;;;22.77;51.35;100687.31;5010221;28;45309;-58
2021/09/10 00:23:44;;;;;;;;;3.75;3.75;;;;;22.77;51.42;100698.88;5017772;28;45377;-58
2021/09/10 00:26:10;;;;;;;;;7.00;4.00;;;;;22.78;51.67;100687.19;5017411;28;45436;-58
2021/09/10 00:28:36;;;;;;;;;3.75;2.50;;;;;22.76;52.01;100685.59;5016757;28;45391;-58
2021/09/10 00:31:02;;;;;;;;;3.00;3.00;;;;;22.76;51.72;100688.28;5013614;28;45556;-58
2021/09/10 00:33:28;;;;;;;;;7.00;4.00;;;;;22.74;51.81;100693.69;5015472;28;46090;-58
2021/09/10 00:35:54;;;;;;;;;3.50;3.00;;;;;22.74;52.02;100701.75;5011719;28;45190;-58
2021/09/10 00:38:19;;;;;;;;;4.50;4.50;;;;;22.72;51.65;100707.19;5015237;28;45510;-58
2021/09/10 00:40:45;;;;;;;;;4.00;2.75;;;;;22.72;51.80;100703.69;5017235;28;45287;-58
2021/09/10 00:43:11;;;;;;;;;6.00;4.50;;;;;22.69;51.75;100712.78;5013134;28;47047;-59
2021/09/10 00:45:42;;;;;;;;;2.50;2.50;;;;;22.67;51.63;100709.31;5016886;28;45417;-58
2021/09/10 00:48:08;;;;;;;;;3.50;3.50;;;;;22.63;51.82;100707.81;5019714;28;45346;-58
2021/09/10 00:50:33;;;;;;;;;2.25;2.25;;;;;22.60;52.16;100707.16;5014022;28;45394;-58
2021/09/10 00:52:58;;;;;;;;;3.50;3.00;;;;;22.59;51.99;100710.78;5018302;28;46172;-58
2021/09/10 00:55:25;;;;;;;;;5.50;4.50;;;;;22.55;52.14;100718.16;5012300;28;45219;-58
2021/09/10 00:57:51;;;;;;;;;2.50;2.50;;;;;22.51;52.07;100704.09;5017850;28;45519;-58
2021/09/10 01:00:17;;;;;;;;;5.00;4.00;;;;;22.50;52.64;100715.81;5010220;28;45398;-58
2021/09/10 01:02:42;;;;;;;;;3.50;3.50;;;;;22.48;52.37;100709.69;5017244;28;46211;-58
2021/09/10 01:05:08;;;;;;;;;3.25;3.25;;;;;22.43;52.39;100710.91;5015585;28;45408;-58
2021/09/10 01:07:35;;;;;;;;;3.00;2.25;;;;;22.45;52.21;100717.03;5014707;28;45467;-58
2021/09/10 01:10:01;;;;;;;;;3.50;3.50;;;;;22.42;52.43;100719.94;5012987;28;45465;-58
2021/09/10 01:12:27;;;;;;;;;3.50;3.00;;;;;22.40;52.07;100722.69;5012975;28;47012;-58
2021/09/10 01:14:53;;;;;;;;;4.75;4.75;;;;;22.36;52.28;100711.31;5012123;28;45233;-58
2021/09/10 01:17:19;;;;;;;;;2.75;2.75;;;;;22.34;52.45;100725.72;5014232;28;45237;-58
2021/09/10 01:19:44;;;;;;;;;3.00;3.00;;;;;22.32;52.28;100725.81;5016837;28;45475;-58
2021/09/10 01:22:10;;;;;;;;;4.75;4.75;;;;;22.28;52.65;100721.63;5018231;28;47088;-58
2021/09/10 01:24:38;;;;;;;;;5.00;3.75;;;;;22.26;52.39;100725.38;5014976;28;45241;-58
2021/09/10 01:27:05;;;;;;;;;3.75;3.00;;;;;22.24;52.68;100725.47;5018919;28;45444;-58
2021/09/10 01:29:32;;;;;;;;;6.00;6.00;;;;;22.22;52.91;100730.06;5012552;28;45346;-58
2021/09/10 01:31:58;;;;;;;;;4.00;4.00;;;;;22.20;53.33;100726.59;5015047;28;46289;-58
2021/09/10 01:34:23;;;;;;;;;4.25;4.25;;;;;22.15;52.75;100729.59;5008928;28;45333;-58
2021/09/10 01:36:49;;;;;;;;;5.00;4.00;;;;;22.14;53.26;100716.28;5015692;28;45235;-58
2021/09/10 01:39:15;;;;;;;;;4.00;4.00;;;;;22.12;53.47;100719.06;5016655;28;45596;-58
2021/09/10 01:41:40;;;;;;;;;7.25;5.00;;;;;22.10;52.92;100710.28;5014525;28;45815;-58
2021/09/10 01:44:05;;;;;;;;;4.00;4.00;;;;;22.10;53.61;100715.66;5014513;28;45380;-58
2021/09/10 01:46:31;;;;;;;;;4.00;4.00;;;;;22.08;53.06;100712.19;5016004;28;46258;-58
2021/09/10 01:48:56;;;;;;;;;4.75;4.00;;;;;22.06;53.27;100711.41;5017724;28;45531;-58
2021/09/10 01:51:33;;;;;;;;;4.00;4.00;;;;;22.06;53.41;100714.97;5014341;28;45485;-58
2021/09/10 01:54:00;;;;;;;;;5.00;4.00;;;;;22.03;53.45;100715.16;5016379;28;45360;-58
2021/09/10 01:56:27;;;;;;;;;4.00;4.00;;;;;22.04;53.57;100716.03;5010292;28;45352;-58
2021/09/10 01:58:52;;;;;;;;;3.00;3.00;;;;;22.03;53.64;100714.31;5014922;28;45519;-58
2021/09/10 02:01:24;;;;;;;;;3.00;3.00;;;;;22.03;53.29;100720.50;5016050;28;46589;-58
2021/09/10 02:03:49;;;;;;;;;4.75;2.50;;;;;22.02;53.35;100716.09;5014111;28;45476;-58
2021/09/10 02:06:14;;;;;;;;;3.00;3.00;;;;;22.03;53.51;100722.34;5014326;28;45305;-58
2021/09/10 02:08:40;;;;;;;;;4.25;4.25;;;;;22.03;53.29;100717.81;5013031;28;45483;-58
2021/09/10 02:11:05;;;;;;;;;3.25;3.25;;;;;22.03;53.15;100722.34;5012560;28;47307;-58
2021/09/10 02:13:30;;;;;;;;;4.00;3.00;;;;;22.03;53.25;100720.50;5018470;28;45380;-58
2021/09/10 02:15:56;;;;;;;;;4.00;4.00;;;;;22.03;53.92;100731.19;5012641;28;45409;-58
2021/09/10 02:18:21;;;;;;;;;7.00;5.00;;;;;22.03;53.96;100733.88;5016043;28;45312;-59
2021/09/10 02:20:46;;;;;;;;;3.25;3.25;;;;;22.03;53.78;100733.88;5011428;28;45323;-58
2021/09/10 02:23:12;;;;;;;;;4.50;4.25;;;;;22.03;53.71;100731.19;5013945;28;45292;-58
2021/09/10 02:25:37;;;;;;;;;4.75;3.00;;;;;22.04;53.93;100735.59;5013213;28;45214;-58
2021/09/10 02:28:02;;;;;;;;;3.00;3.00;;;;;22.02;53.72;100737.50;5016282;28;45192;-58
2021/09/10 02:30:28;;;;;;;;;5.00;4.50;;;;;22.02;53.96;100740.19;5010804;28;45392;-58
2021/09/10 02:32:54;;;;;;;;;3.50;3.25;;;;;22.00;54.11;100734.09;5015191;28;45297;-58
2021/09/10 02:35:19;;;;;;;;;5.25;4.00;;;;;21.99;54.08;100740.38;5015585;28;45329;-58
2021/09/10 02:37:44;;;;;;;;;4.00;4.00;;;;;21.91;54.23;100724.81;5014081;28;45504;-58
2021/09/10 02:40:10;;;;;;;;;5.00;5.00;;;;;21.98;54.30;100735.97;5015374;28;47184;-59
2021/09/10 02:42:36;;;;;;;;;6.00;4.00;;;;;21.99;54.07;100728.84;5011975;28;45850;-58
2021/09/10 02:45:02;;;;;;;;;4.00;4.00;;;;;21.95;54.33;100719.25;5015768;28;45321;-58
2021/09/10 02:47:28;;;;;;;;;4.00;3.00;;;;;21.96;54.39;100719.19;5018251;28;45510;-58
2021/09/10 02:49:54;;;;;;;;;4.00;4.00;;;;;21.96;54.06;100721.00;5013292;28;45377;-58
2021/09/10 02:52:20;;;;;;;;;8.00;5.75;;;;;21.96;54.33;100723.66;5015409;28;45436;-58
2021/09/10 02:54:45;;;;;;;;;3.75;3.75;;;;;21.97;54.52;100720.03;5012397;28;45275;-58
2021/09/10 02:57:10;;;;;;;;;4.50;4.00;;;;;21.98;53.91;100721.75;5013515;28;45392;-58
2021/09/10 02:59:36;;;;;;;;;4.75;4.75;;;;;21.98;54.22;100716.41;5014091;28;45258;-61
2021/09/10 03:02:01;;;;;;;;;5.75;4.00;;;;;21.99;54.27;100720.81;5016634;28;45238;-58
2021/09/10 03:04:27;;;;;;;;;4.25;4.25;;;;;21.99;54.36;100728.84;5012097;28;45226;-58
2021/09/10 03:06:52;;;;;;;;;5.75;3.75;;;;;21.97;54.87;100715.53;5015412;28;45325;-58
2021/09/10 03:09:17;;;;;;;;;5.00;3.25;;;;;21.96;54.49;100716.50;5014498;28;46973;-55
2021/09/10 03:11:43;;;;;;;;;5.00;4.00;;;;;21.95;54.35;100709.44;5014249;28;45462;-63
2021/09/10 03:14:08;;;;;;;;;5.00;4.50;;;;;21.96;54.38;100708.50;5017510;28;45525;-60
2021/09/10 03:16:33;;;;;;;;;4.00;4.00;;;;;21.97;54.50;100720.88;5017214;28;45456;-64
2021/09/10 03:18:59;;;;;;;;;4.25;3.50;;;;;21.97;54.29;100714.69;5015213;28;45235;-66
2021/09/10 03:21:25;;;;;;;;;5.50;4.50;;;;;21.98;54.71;100717.25;5009088;28;45491;-65
2021/09/10 03:23:50;;;;;;;;;5.50;5.50;;;;;21.97;54.33;100710.19;5014395;28;45189;-68
2021/09/10 03:26:16;;;;;;;;;6.75;5.00;;;;;21.97;54.44;100712.84;5015273;28;45510;-61
2021/09/10 03:28:41;;;;;;;;;5.00;5.00;;;;;21.96;54.93;100713.84;5012992;28;47430;-59
2021/09/10 03:31:06;;;;;;;;;3.50;3.50;;;;;21.95;54.74;100711.22;5012978;28;45426;-59
2021/09/10 03:33:32;;;;;;;;;6.25;4.50;;;;;21.96;54.53;100716.50;5012212;28;45416;-64
2021/09/10 03:35:57;;;;;;;;;5.00;5.00;;;;;21.95;54.37;100717.47;5010319;28;45461;-59
2021/09/10 03:38:22;;;;;;;;;3.50;3.25;;;;;21.95;54.90;100714.78;5011694;28;45441;-59
2021/09/10 03:40:48;;;;;;;;;4.50;4.50;;;;;21.95;54.78;100709.44;5014837;28;45408;-58
2021/09/10 03:43:13;;;;;;;;;4.25;4.25;;;;;21.95;54.73;100698.75;5009976;28;45469;-59
2021/09/10 03:45:39;;;;;;;;;5.00;5.00;;;;;21.98;54.75;100706.56;5013585;28;45490;-58
2021/09/10 03:48:05;;;;;;;;;4.00;3.75;;;;;21.98;54.30;100703.88;5016649;28;46082;-59
2021/09/10 03:50:30;;;;;;;;;5.75;5.00;;;;;21.97;54.84;100698.63;5010901;28;45441;-58
2021/09/10 03:52:56;;;;;;;;;4.25;4.25;;;;;21.98;55.27;100703.88;5015647;28;45246;-58
2021/09/10 03:55:21;;;;;;;;;7.00;5.00;;;;;21.97;55.12;100707.50;5009735;28;45454;-59
2021/09/10 03:57:47;;;;;;;;;5.25;5.25;;;;;21.96;55.06;100708.50;5016371;28;48207;-58
2021/09/10 04:00:12;;;;;;;;;5.75;4.00;;;;;21.96;55.06;100704.94;5018459;28;45289;-59
2021/09/10 04:02:38;;;;;;;;;5.50;5.50;;;;;21.95;55.07;100711.22;5017207;28;45241;-58
2021/09/10 04:05:04;;;;;;;;;5.50;5.50;;;;;21.93;54.71;100714.00;5016032;28;45407;-59
2021/09/10 04:07:29;;;;;;;;;5.75;5.75;;;;;21.94;55.24;100707.72;5016384;28;46185;-59
2021/09/10 04:09:54;;;;;;;;;5.25;5.00;;;;;21.95;55.29;100712.13;5013991;28;45374;-59
2021/09/10 04:12:20;;;;;;;;;5.00;5.00;;;;;21.96;54.56;100719.19;5016525;28;45309;-59
2021/09/10 04:14:46;;;;;;;;;5.00;5.00;;;;;21.95;54.77;100711.22;5019089;28;45571;-59
2021/09/10 04:17:11;;;;;;;;;6.00;5.00;;;;;21.97;54.97;100712.84;5014854;28;46396;-59
2021/09/10 04:19:36;;;;;;;;;8.75;5.50;;;;;21.98;55.30;100716.41;5017010;28;45619;-58
2021/09/10 04:22:02;;;;;;;;;8.00;5.25;;;;;21.98;54.60;100716.41;5014072;28;45360;-56
2021/09/10 04:24:27;;;;;;;;;5.50;5.50;;;;;21.98;55.26;100719.94;5018845;28;45525;-58
2021/09/10 04:26:52;;;;;;;;;6.25;5.25;;;;;21.99;54.83;100723.50;5020934;28;46428;-58
2021/09/10 04:29:18;;;;;;;;;6.00;6.00;;;;;21.99;54.91;100718.97;5012199;28;45474;-58
2021/09/10 04:31:44;;;;;;;;;10.50;10.50;;;;;21.99;55.08;100712.78;5020074;28;45398;-58
2021/09/10 04:34:09;;;;;;;;;5.50;5.50;;;;;21.98;55.31;100713.72;5010871;28;45508;-57
2021/09/10 04:36:35;;;;;;;;;6.25;6.25;;;;;21.93;55.19;100703.31;5019076;28;47892;-57
2021/09/10 04:39:00;;;;;;;;;7.25;6.25;;;;;22.01;54.94;100717.09;5015737;28;45372;-57
2021/09/10 04:41:26;;;;;;;;;8.25;7.75;;;;;22.02;55.39;100717.94;5017458;28;45270;-57
2021/09/10 04:43:51;;;;;;;;;7.50;6.00;;;;;22.01;55.03;100716.22;5013204;28;45343;-57
2021/09/10 04:46:16;;;;;;;;;6.50;5.25;;;;;22.05;55.36;100720.44;5016299;28;46232;-58
2021/09/10 04:48:42;;;;;;;;;6.50;5.00;;;;;22.05;55.50;100721.28;5017401;28;45458;-58
2021/09/10 04:51:07;;;;;;;;;10.00;6.75;;;;;22.04;55.23;100716.88;5013668;28;45253;-57
2021/09/10 04:53:32;;;;;;;;;7.75;6.75;;;;;22.06;55.30;100720.31;5014800;28;45453;-58
2021/09/10 04:55:58;;;;;;;;;8.25;7.25;;;;;22.07;54.70;100722.06;5013840;28;46200;-58
2021/09/10 04:58:23;;;;;;;;;7.25;7.25;;;;;22.09;55.24;100724.63;4995755;28;45254;-58
2021/09/10 05:00:49;;;;;;;;;9.00;6.50;;;;;22.07;55.45;100719.38;5020346;28;45371;-58
2021/09/10 05:03:14;;;;;;;;;6.75;6.75;;;;;22.07;55.29;100719.38;5011542;28;45512;-58
2021/09/10 05:05:40;;;;;;;;;5.00;5.00;;;;;22.06;55.22;100728.34;5019391;28;46021;-58
2021/09/10 05:08:05;;;;;;;;;6.00;6.00;;;;;22.08;55.51;100728.25;5010201;28;45482;-58
2021/09/10 05:10:30;;;;;;;;;6.00;6.00;;;;;22.07;55.10;100727.41;5017427;28;45485;-57
2021/09/10 05:12:56;;;;;;;;;9.25;6.25;;;;;22.07;55.49;100730.06;5014604;28;45786;-58
2021/09/10 05:15:21;;;;;;;;;7.75;7.75;;;;;22.08;55.45;100725.56;5017207;28;45435;-59
2021/09/10 05:17:46;;;;;;;;;6.75;6.25;;;;;22.10;55.39;100741.53;5012797;28;45319;-57
2021/09/10 05:20:12;;;;;;;;;7.50;6.50;;;;;22.10;55.01;100747.75;5016509;28;45450;-57
2021/09/10 05:22:38;;;;;;;;;7.50;6.00;;;;;22.08;55.00;100741.63;5009963;28;45467;-56
2021/09/10 05:25:05;;;;;;;;;8.00;7.00;;;;;22.06;55.19;100747.09;5014847;28;47212;-56
2021/09/10 05:27:30;;;;;;;;;7.75;6.25;;;;;22.04;55.39;100746.31;5015458;28;45585;-54
2021/09/10 05:29:55;;;;;;;;;8.25;6.75;;;;;22.04;55.10;100748.97;5019768;28;45333;-56
2021/09/10 05:32:21;;;;;;;;;10.75;8.00;;;;;21.99;54.91;100739.53;5007252;28;45451;-54
2021/09/10 05:34:46;;;;;;;;;8.25;6.50;;;;;22.02;55.82;100744.69;5013867;28;46412;-58
2021/09/10 05:37:11;;;;;;;;;5.00;5.00;;;;;22.00;55.45;100746.59;5012903;28;45360;-58
2021/09/10 05:39:37;;;;;;;;;6.00;5.00;;;;;22.01;55.58;100759.88;5009047;28;45965;-57
2021/09/10 05:42:02;;;;;;;;;7.50;7.25;;;;;22.01;55.43;100751.88;5011182;28;45720;-58
2021/09/10 05:44:28;;;;;;;;;7.25;7.00;;;;;22.01;55.55;100750.97;5011581;28;45437;-58
2021/09/10 05:46:53;;;;;;;;;7.75;7.75;;;;;22.00;55.10;100755.50;5018488;28;45201;-57
2021/09/10 05:49:18;;;;;;;;;10.00;7.00;;;;;22.02;55.27;100755.38;5019594;28;45532;-58
2021/09/10 05:51:44;;;;;;;;;8.00;7.00;;;;;22.02;55.41;100753.56;5018665;28;45482;-58
2021/09/10 05:54:09;;;;;;;;;7.75;7.00;;;;;22.04;55.22;100757.00;5020086;28;46112;-58
2021/09/10 05:56:35;;;;;;;;;9.25;6.25;;;;;22.04;55.78;100764.19;5014057;28;45318;-58
2021/09/10 05:59:00;;;;;;;;;9.00;7.75;;;;;22.02;55.29;100766.09;5014622;28;45212;-58
2021/09/10 06:01:25;;;;;;;;;6.50;6.00;;;;;22.03;55.39;100765.13;5006507;28;45414;-58
2021/09/10 06:03:51;;;;;;;;;11.25;9.00;;;;;21.97;55.73;100765.50;5012244;28;45150;-58
2021/09/10 06:06:16;;;;;;;;;8.75;7.25;;;;;22.03;55.21;100779.34;5003521;28;45329;-58
2021/09/10 06:08:42;;;;;;;;;7.75;6.25;;;;;22.05;55.79;100780.13;5015433;28;45497;-58
2021/09/10 06:11:07;;;;;;;;;6.00;5.00;;;;;22.08;55.57;100789.78;5015165;28;45666;-60
2021/09/10 06:13:32;;;;;;;;;8.50;8.50;;;;;22.09;55.47;100780.81;5006301;28;47040;-57
2021/09/10 06:15:58;;;;;;;;;10.50;8.00;;;;;22.11;55.77;100786.06;5011414;28;45392;-58
2021/09/10 06:18:23;;;;;;;;;8.25;7.00;;;;;22.13;55.85;100789.50;5011561;28;45382;-58
2021/09/10 06:20:48;;;;;;;;;8.75;7.50;;;;;22.14;55.43;100791.22;5010326;28;45475;-59
2021/09/10 06:23:14;;;;;;;;;11.75;6.25;;;;;22.15;55.83;100787.59;5010029;28;45376;-58
2021/09/10 06:25:39;;;;;;;;;9.25;7.50;;;;;22.16;55.55;100791.97;5007978;28;45319;-58
2021/09/10 06:28:05;;;;;;;;;10.25;8.50;;;;;22.18;55.58;100795.44;5008653;28;45521;-59
2021/09/10 06:30:30;;;;;;;;;8.25;8.25;;;;;22.19;55.33;100805.19;5005223;28;45561;-59
2021/09/10 06:32:56;;;;;;;;;8.00;7.50;;;;;22.16;55.77;100800.88;5013262;28;45435;-63
2021/09/10 06:35:22;;;;;;;;;7.00;7.00;;;;;22.19;55.70;100797.16;5012867;28;45792;-57
2021/09/10 06:37:48;;;;;;;;;8.50;8.00;;;;;22.19;55.31;100802.50;5010138;28;45699;-57
2021/09/10 06:40:13;;;;;;;;;8.00;8.00;;;;;22.21;55.43;100808.59;5001791;28;45175;-57
2021/09/10 06:42:39;;;;;;;;;10.25;10.25;;;;;22.22;55.31;100803.16;5000570;28;47002;-57
2021/09/10 06:45:05;;;;;;;;;10.50;8.50;;;;;22.25;55.22;100804.81;5013549;28;45181;-57
2021/09/10 06:47:31;;;;;;;;;10.25;8.25;;;;;22.03;55.46;100767.81;5000845;28;45255;-57
2021/09/10 06:49:56;;;;;;;;;9.00;9.00;;;;;22.26;55.35;100814.53;5000248;28;45486;-57
2021/09/10 06:52:22;;;;;;;;;12.75;11.25;;;;;22.27;55.52;100818.09;5000468;28;46046;-57
2021/09/10 06:54:47;;;;;;;;;10.50;10.50;;;;;22.26;55.44;100824.41;5000447;28;45415;-58
2021/09/10 06:57:12;;;;;;;;;6.00;4.00;;;;;22.29;55.49;100822.38;5000591;28;45350;-58
2021/09/10 06:59:38;;;;;;;;;9.75;9.25;;;;;22.29;55.12;100825.06;5000527;28;45700;-57
2021/09/10 07:02:03;;;;;;;;;12.75;12.25;;;;;;;;5022278;28;46077;-57
2021/09/10 07:04:29;;;;;;;;;15.00;12.25;;;;;22.29;55.27;100826.88;5001681;28;45337;-57
2021/09/10 07:06:54;;;;;;;;;11.75;10.00;;;;;22.31;55.25;100831.16;5000492;28;45500;-57
2021/09/10 07:09:19;;;;;;;;;14.00;14.00;;;;;22.28;55.01;100836.72;5000223;28;45391;-57
2021/09/10 07:11:45;;;;;;;;;16.00;12.75;;;;;22.29;55.35;100835.78;4999984;28;46096;-57
2021/09/10 07:14:10;;;;;;;;;21.75;18.75;;;;;22.29;55.56;100840.25;5000196;28;45524;-57
2021/09/10 07:16:35;;;;;;;;;16.25;13.00;;;;;22.27;55.05;100845.69;5000447;28;45571;-57
2021/09/10 07:19:01;;;;;;;;;17.50;17.50;;;;;22.27;55.75;100839.50;5013540;28;45266;-57
2021/09/10 07:21:26;;;;;;;;;21.00;20.25;;;;;22.26;55.76;100838.63;5011325;28;45944;-54
2021/09/10 07:23:52;;;;;;;;;16.75;16.25;;;;;22.26;55.65;100835.94;5020058;28;45321;-57
2021/09/10 07:26:18;;;;;;;;;20.00;20.00;;;;;22.27;55.66;100844.84;5020088;28;45320;-57
2021/09/10 07:28:44;;;;;;;;;11.00;10.25;;;;;22.27;55.51;100842.19;5019597;28;45406;-57
2021/09/10 07:31:09;;;;;;;;;16.25;10.25;;;;;22.23;55.62;100842.34;5018523;28;46353;-57
2021/09/10 07:33:37;;;;;;;;;16.00;11.00;;;;;22.26;55.72;100843.97;5018490;28;45240;-57
2021/09/10 07:36:04;;;;;;;;;10.50;8.75;;;;;22.26;55.75;100846.66;5029781;28;45497;-57
2021/09/10 07:38:29;;;;;;;;;13.50;12.25;;;;;22.26;55.96;100849.31;5005093;28;45399;-57
2021/09/10 07:40:55;;;;;;;;;10.75;9.00;;;;;22.24;55.62;100843.22;5016282;28;45288;-57
2021/09/10 07:43:20;;;;;;;;;8.50;8.50;;;;;22.18;55.46;100838.25;5013626;28;45324;-58
2021/09/10 07:45:45;;;;;;;;;25.25;24.75;;;;;22.22;55.78;100845.97;5020929;28;45376;-58
2021/09/10 07:48:11;;;;;;;;;15.50;11.75;;;;;22.23;55.62;100850.38;5003829;28;45253;-57
2021/09/10 07:50:36;;;;;;;;;44.25;38.75;;;;;22.26;55.38;100848.47;4999779;28;45309;-57
2021/09/10 07:53:02;;;;;;;;;7.25;6.50;;;;;22.25;55.60;100853.00;4998652;28;45241;-58
2021/09/10 07:55:27;;;;;;;;;10.50;9.25;;;;;22.27;55.58;100858.25;5000070;28;45298;-58
2021/09/10 07:57:53;;;;;;;;;10.00;8.75;;;;;22.29;55.81;100862.53;4999537;28;45225;-58
2021/09/10 08:00:21;;;;;;;;;10.25;9.25;;;;;22.31;55.24;100863.28;4999905;28;45329;-57
2021/09/10 08:02:47;;;;;;;;;12.25;11.00;;;;;22.32;55.64;100869.53;5012684;28;45257;-58
2021/09/10 08:05:13;;;;;;;;;10.50;9.50;;;;;22.32;55.55;100873.03;5010781;28;45364;-58
2021/09/10 08:07:38;;;;;;;;;10.25;9.25;;;;;22.32;55.26;100878.41;5019555;28;45281;-58
2021/09/10 08:10:04;;;;;;;;;10.50;9.00;;;;;22.34;55.36;100876.50;5019346;28;45333;-58
2021/09/10 08:12:29;;;;;;;;;9.50;9.50;;;;;22.35;55.38;100878.22;5019263;28;45381;-58
2021/09/10 08:14:55;;;;;;;;;21.25;19.00;;;;;22.36;55.79;100882.63;5019582;28;45262;-58
2021/09/10 08:17:20;;;;;;;;;20.25;19.00;;;;;22.38;55.20;100883.41;5019321;28;45412;-58
2021/09/10 08:19:48;;;;;;;;;20.50;17.50;;;;;22.40;55.50;100883.31;5018907;28;46311;-58
2021/09/10 08:22:13;;;;;;;;;18.25;17.25;;;;;22.45;55.71;100885.69;5019219;28;45323;-58
2021/09/10 08:24:38;;;;;;;;;18.25;14.00;;;;;22.48;55.57;100897.09;5019433;28;45217;-58
2021/09/10 08:27:04;;;;;;;;;9.75;9.50;;;;;22.48;55.16;100886.38;5019244;28;45234;-58
2021/09/10 08:29:29;;;;;;;;;14.00;13.50;;;;;22.51;55.75;100890.69;5019286;28;45294;-58
2021/09/10 08:31:54;;;;;;;;;12.50;11.50;;;;;22.54;55.35;100886.00;5019225;28;45542;-57
2021/09/10 08:34:20;;;;;;;;;12.25;11.50;;;;;22.58;55.43;100888.47;5014155;28;45421;-58
2021/09/10 08:36:46;;;;;;;;;9.75;8.00;;;;;22.63;55.50;100889.91;5019360;28;45261;-58
2021/09/10 08:39:11;;;;;;;;;12.00;10.50;;;;;22.64;55.57;100886.28;5018984;28;46266;-58
2021/09/10 08:41:39;;;;;;;;;13.25;11.25;;;;;22.68;55.21;100885.13;5019380;28;45923;-58
2021/09/10 08:44:06;;;;;;;;;10.25;8.75;;;;;22.75;55.29;100890.09;5022628;28;45313;-58
2021/09/10 08:46:36;;;;;;;;;12.00;11.00;;;;;22.79;55.37;100895.19;5010316;28;45259;-58
2021/09/10 08:49:02;;;;;;;;;10.75;10.75;;;;;22.84;55.52;100894.88;5002465;28;45600;-58
2021/09/10 08:51:27;;;;;;;;;10.50;9.25;;;;;22.88;55.14;100894.59;5001121;28;46019;-58
2021/09/10 08:53:53;;;;;;;;;10.75;10.50;;;;;22.92;55.12;100892.56;5002615;28;45329;-58
2021/09/10 08:56:18;;;;;;;;;10.50;10.50;;;;;22.96;55.14;100899.44;5010512;28;45968;-58
2021/09/10 08:58:44;;;;;;;;;8.00;8.00;;;;;23.01;55.13;100900.00;5021692;28;46172;-58
2021/09/10 09:01:09;;;;;;;;;9.75;9.00;;;;;23.04;55.28;100898.94;5022533;28;45258;-58
2021/09/10 09:03:35;;;;;;;;;9.75;8.50;;;;;23.07;55.07;100896.09;5001354;28;45344;-58
2021/09/10 09:06:01;;;;;;;;;8.75;8.25;;;;;23.12;55.18;100899.34;5014510;28;45531;-58
2021/09/10 09:08:26;;;;;;;;;7.25;5.50;;;;;23.12;54.87;100898.44;5004127;28;45475;-58
2021/09/10 09:10:56;;;;;;;;;8.50;8.50;;;;;23.16;54.76;100903.56;5022067;28;45237;-58
2021/09/10 09:13:25;;;;;;;;;7.50;6.50;;;;;23.19;54.66;100905.19;5021995;28;45368;-58
2021/09/10 09:16:20;;;;;;;;;6.25;6.00;;;;;23.21;54.82;100904.13;5022097;28;45405;-58
2021/09/10 09:18:47;;;;;;;;;7.75;6.50;;;;;23.27;54.81;100912.72;5022111;28;47143;-58
2021/09/10 09:21:13;;;;;;;;;8.00;6.25;;;;;23.30;54.70;100905.34;5021700;28;45179;-58
2021/09/10 09:23:39;;;;;;;;;7.00;6.00;;;;;23.29;54.30;100913.50;5022085;28;45305;-58
2021/09/10 09:26:16;;;;;;;;;7.00;6.00;;;;;23.36;54.51;100907.63;5003420;28;45308;-58
2021/09/10 09:28:42;;;;;;;;;6.50;6.50;;;;;23.40;54.60;100910.97;5009482;28;46594;-58
2021/09/10 09:31:09;;;;;;;;;6.50;6.50;;;;;23.47;54.27;100916.78;5001775;28;45376;-58
2021/09/10 09:33:47;;;;;;;;;11.00;9.00;;;;;23.54;54.38;100918.09;5002143;28;45320;-58
2021/09/10 09:36:16;;;;;;;;;8.50;7.00;;;;;23.62;54.22;100913.09;5021812;28;45265;-57
2021/09/10 09:38:43;;;;;;;;;7.25;7.25;;;;;23.69;54.46;100918.91;5021561;28;45766;-58
2021/09/10 09:41:10;;;;;;;;;9.50;7.75;;;;;23.75;54.51;100914.94;5021627;28;45308;-58
2021/09/10 09:43:38;;;;;;;;;6.25;6.00;;;;;23.81;54.22;100910.03;5021594;28;45328;-58
2021/09/10 09:46:15;;;;;;;;;6.00;6.00;;;;;23.86;54.21;100907.03;5013523;28;45409;-58
2021/09/10 09:48:43;;;;;;;;;7.00;5.25;;;;;23.94;54.01;100912.78;5001504;28;45234;-58
2021/09/10 09:51:10;;;;;;;;;5.25;5.25;;;;;23.99;53.82;100918.69;5001333;28;45344;-58
2021/09/10 09:53:37;;;;;;;;;5.50;5.50;;;;;24.04;53.85;100922.88;5000622;28;45362;-58
2021/09/10 09:56:04;;;;;;;;;6.75;5.00;;;;;24.07;53.68;100915.47;5001539;28;45231;-58
2021/09/10 09:58:30;;;;;;;;;3.00;3.00;;;;;24.11;53.65;100917.00;5000066;28;46121;-57
2021/09/10 10:00:57;;;;;;;;;4.00;4.00;;;;;24.15;53.52;100912.25;5001632;28;45433;-58
2021/09/10 10:03:22;;;;;;;;;4.00;4.00;;;;;24.18;53.23;100912.06;5001614;28;45294;-58
2021/09/10 10:06:03;;;;;;;;;7.50;7.25;;;;;24.24;52.97;100913.44;5001268;28;45455;-58
2021/09/10 10:08:32;;;;;;;;;4.75;4.00;;;;;24.26;53.07;100909.69;5001219;28;45745;-58
2021/09/10 10:11:10;;;;;;;;;7.25;5.25;;;;;24.32;52.58;100911.94;5009506;28;45580;-58
2021/09/10 10:13:36;;;;;;;;;6.50;5.00;;;;;24.37;52.71;100900.03;5009253;28;45324;-58
2021/09/10 10:16:02;;;;;;;;;8.00;6.25;;;;;24.41;53.12;100913.13;5006296;28;45444;-58
2021/09/10 10:18:35;;;;;;;;;6.50;6.00;;;;;24.45;52.84;100908.41;5021112;28;47543;-58
2021/09/10 10:21:01;;;;;;;;;6.75;6.00;;;;;24.51;52.93;100907.97;5020842;28;45250;-58
2021/09/10 10:23:42;;;;;;;;;6.50;5.75;;;;;24.55;52.61;100909.47;5021369;28;45298;-58
2021/09/10 10:26:16;;;;;;;;;7.25;6.00;;;;;24.59;52.43;100911.00;5020739;28;45448;-58
2021/09/10 10:28:53;;;;;;;;;4.00;4.00;;;;;24.62;52.46;100902.72;5020870;28;45301;-58
2021/09/10 10:31:59;;;;;;;;;7.25;7.00;;;;;24.66;52.33;100904.22;5020668;28;45363;-58
2021/09/10 10:34:26;;;;;;;;;5.25;5.25;;;;;24.71;52.30;100903.91;5015642;28;45412;-58
2021/09/10 10:36:51;;;;;;;;;6.75;5.50;;;;;24.77;52.10;100897.25;5019594;28;45507;-58
2021/09/10 10:39:26;;;;;;;;;5.25;5.25;;;;;24.85;52.59;100900.22;5020648;28;46065;-58
2021/09/10 10:42:00;;;;;;;;;4.25;4.25;;;;;24.90;51.56;100895.38;5020525;28;45332;-58
2021/09/10 10:44:32;;;;;;;;;7.25;6.00;;;;;24.95;51.78;100893.22;5020853;28;45340;-58
2021/09/10 10:47:08;;;;;;;;;6.25;5.00;;;;;24.98;51.51;100895.69;5005001;28;45339;-58
2021/09/10 10:49:36;;;;;;;;;5.50;5.50;;;;;25.02;51.79;100900.84;5000748;28;45439;-57
2021/09/10 10:52:01;;;;;;;;;7.50;6.00;;;;;25.00;51.53;100884.81;5000400;28;45297;-57
2021/09/10 10:54:29;;;;;;;;;5.25;5.25;;;;;25.02;51.16;100898.16;5001012;28;45345;-57
2021/09/10 10:56:55;;;;;;;;;5.50;4.25;;;;;25.02;51.73;100890.97;5000456;28;45278;-57
2021/09/10 10:59:25;;;;;;;;;6.00;6.00;;;;;25.08;51.71;100889.63;5000653;28;45238;-57
2021/09/10 11:05:04;;;;;;;;;5.00;5.00;;;;;25.33;50.99;100882.44;5000186;28;45258;-57
2021/09/10 11:07:30;;;;;;;;;4.50;4.50;;;;;25.51;51.00;100881.13;4992350;28;45300;-56
2021/09/10 11:10:09;;;;;;;;;4.50;2.75;;;;;25.72;51.17;100877.75;5016444;28;45899;-57
2021/09/10 11:12:37;;;;;;;;;1.75;1.75;;;;;25.95;50.37;100876.00;5007749;28;45269;-57
2021/09/10 11:15:26;;;;;;;;;3.00;3.00;;;;;26.22;49.95;100875.72;5000454;28;45294;-57
2021/09/10 11:17:53;;;;;;;;;3.00;3.00;;;;;26.49;49.84;100885.31;5012376;28;45376;-57
2021/09/10 11:20:34;;;;;;;;;3.00;2.25;;;;;26.79;50.28;100883.00;4998727;28;47937;-57
2021/09/10 11:23:03;;;;;;;;;3.00;3.00;;;;;27.04;49.84;100857.59;5000217;28;45725;-57
2021/09/10 11:25:29;;;;;;;;;6.75;4.25;;;;;27.34;50.09;100867.66;5000445;28;45231;-57